createdAt,value
2018-03-01T00:01:40.312Z,6.07
2018-03-01T00:04:09.598Z,5.00
2018-03-01T00:06:38.894Z,4.97
2018-03-01T00:09:08.392Z,8.85
2018-03-01T00:11:37.923Z,5.47
2018-03-01T00:14:07.447Z,5.82
2018-03-01T00:16:36.777Z,6.10
2018-03-01T00:19:06.091Z,4.72
2018-03-01T00:21:35.526Z,7.50
2018-03-01T00:24:04.804Z,4.32
2018-03-01T00:26:34.104Z,5.75
2018-03-01T00:29:03.395Z,6.25
2018-03-01T00:31:33.467Z,8.32
2018-03-01T00:34:02.992Z,6.75
2018-03-01T00:36:32.260Z,4.60
2018-03-01T00:39:02.373Z,6.50
2018-03-01T00:44:06.770Z,8.45
2018-03-01T00:46:36.060Z,6.72
2018-03-01T00:49:05.346Z,4.07
2018-03-01T00:51:35.001Z,7.22
2018-03-01T00:54:05.031Z,5.70
2018-03-01T00:56:35.171Z,4.80
2018-03-01T00:59:04.480Z,5.43
2018-03-01T01:01:37.521Z,6.97
2018-03-01T01:04:06.917Z,5.95
2018-03-01T01:06:42.742Z,6.43
2018-03-01T01:09:12.241Z,8.27
2018-03-01T01:11:41.987Z,5.93
2018-03-01T01:14:11.322Z,4.93
2018-03-01T01:16:40.806Z,6.05
2018-03-01T01:19:15.410Z,6.18
2018-03-01T01:21:44.679Z,5.97
2018-03-01T01:24:13.982Z,4.62
2018-03-01T01:26:43.567Z,6.57
2018-03-01T01:29:12.885Z,6.40
2018-03-01T01:31:42.192Z,5.30
2018-03-01T01:34:11.516Z,4.55
2018-03-01T01:36:40.776Z,6.55
2018-03-01T01:39:10.046Z,7.95
2018-03-01T01:41:44.056Z,7.82
2018-03-01T01:44:13.380Z,6.60
2018-03-01T01:46:42.728Z,5.85
2018-03-01T01:49:12.547Z,6.03
2018-03-01T01:51:42.160Z,8.35
2018-03-01T01:54:12.550Z,4.78
2018-03-01T01:56:42.699Z,4.78
2018-03-01T01:59:11.995Z,6.07
2018-03-01T02:01:41.259Z,6.07
2018-03-01T02:04:10.547Z,5.68
2018-03-01T02:06:40.579Z,5.68
2018-03-01T02:09:10.650Z,6.05
2018-03-01T02:11:39.944Z,7.18
2018-03-01T02:14:09.211Z,6.12
2018-03-01T02:16:38.529Z,5.15
2018-03-01T02:19:07.852Z,6.35
2018-03-01T02:21:37.924Z,6.55
2018-03-01T02:24:07.198Z,9.02
2018-03-01T02:26:37.305Z,5.47
2018-03-01T02:29:06.563Z,5.80
2018-03-01T02:31:35.824Z,5.78
2018-03-01T02:34:05.135Z,6.35
2018-03-01T02:36:34.430Z,5.15
2018-03-01T02:39:03.692Z,4.55
2018-03-01T02:41:33.805Z,7.85
2018-03-01T02:44:03.072Z,5.12
2018-03-01T02:46:32.374Z,3.65
2018-03-01T02:49:01.665Z,7.45
2018-03-01T02:51:30.929Z,4.03
2018-03-01T02:54:00.215Z,6.30
2018-03-01T02:56:29.533Z,5.05
2018-03-01T02:58:59.594Z,4.75
2018-03-01T03:01:28.848Z,6.00
2018-03-01T03:03:58.144Z,5.65
2018-03-01T03:06:28.194Z,6.80
2018-03-01T03:08:58.246Z,5.25
2018-03-01T03:11:27.560Z,6.50
2018-03-01T03:13:58.426Z,6.47
2018-03-01T03:16:27.772Z,5.45
2018-03-01T03:18:57.809Z,4.60
2018-03-01T03:21:27.117Z,7.37
2018-03-01T03:23:57.185Z,5.22
2018-03-01T03:26:26.688Z,4.97
2018-03-01T03:28:56.411Z,4.80
2018-03-01T03:31:26.445Z,5.87
2018-03-01T03:33:55.745Z,5.72
2018-03-01T03:36:25.088Z,5.75
2018-03-01T03:38:54.403Z,4.43
2018-03-01T03:41:23.710Z,6.45
2018-03-01T03:43:52.999Z,6.43
2018-03-01T03:46:22.299Z,5.32
2018-03-01T03:48:52.394Z,6.62
2018-03-01T03:51:21.639Z,5.50
2018-03-01T03:53:50.926Z,6.15
2018-03-01T03:56:20.255Z,5.32
2018-03-01T03:58:49.506Z,5.10
2018-03-01T04:01:18.779Z,4.87
2018-03-01T04:03:48.854Z,5.35
2018-03-01T04:06:18.127Z,6.28
2018-03-01T04:08:47.444Z,4.32
2018-03-01T04:11:17.523Z,6.00
2018-03-01T04:13:47.169Z,6.55
2018-03-01T04:16:16.450Z,4.12
2018-03-01T04:18:45.722Z,4.05
2018-03-01T04:21:15.427Z,3.42
2018-03-01T04:23:45.475Z,4.53
2018-03-01T04:26:14.795Z,4.57
2018-03-01T04:28:44.091Z,6.53
2018-03-01T04:31:14.128Z,5.87
2018-03-01T04:33:44.200Z,6.65
2018-03-01T04:36:13.463Z,3.85
2018-03-01T04:38:42.847Z,5.72
2018-03-01T04:41:12.403Z,7.28
2018-03-01T04:43:42.422Z,5.30
2018-03-01T04:46:12.490Z,5.85
2018-03-01T04:48:41.784Z,8.25
2018-03-01T04:51:11.051Z,5.62
2018-03-01T04:53:40.355Z,6.70
2018-03-01T04:56:09.689Z,3.78
2018-03-01T04:58:38.938Z,4.62
2018-03-01T05:01:08.234Z,5.70
2018-03-01T05:03:37.521Z,4.53
2018-03-01T05:06:06.790Z,5.37
2018-03-01T05:08:36.893Z,6.40
2018-03-01T05:11:06.558Z,7.43
2018-03-01T05:13:35.856Z,6.15
2018-03-01T05:16:05.149Z,4.93
2018-03-01T05:18:34.692Z,7.85
2018-03-01T05:21:04.000Z,5.90
2018-03-01T05:23:33.316Z,6.87
2018-03-01T05:26:02.574Z,7.37
2018-03-01T05:28:31.849Z,5.68
2018-03-01T05:31:03.798Z,6.05
2018-03-01T05:33:33.482Z,5.93
2018-03-01T05:36:02.789Z,4.78
2018-03-01T05:38:32.127Z,5.20
2018-03-01T05:41:01.401Z,5.22
2018-03-01T05:43:30.697Z,5.32
2018-03-01T05:45:59.950Z,5.00
2018-03-01T05:48:29.205Z,6.00
2018-03-01T05:50:58.750Z,5.87
2018-03-01T05:53:28.021Z,5.40
2018-03-01T05:55:57.270Z,4.78
2018-03-01T05:58:26.835Z,5.82
2018-03-01T06:00:56.103Z,5.78
2018-03-01T06:03:25.357Z,6.15
2018-03-01T06:05:54.656Z,5.50
2018-03-01T06:08:24.669Z,5.75
2018-03-01T06:10:54.739Z,5.37
2018-03-01T06:13:23.994Z,4.45
2018-03-01T06:15:53.362Z,6.60
2018-03-01T06:18:22.674Z,6.97
2018-03-01T06:20:51.955Z,8.35
2018-03-01T06:23:22.008Z,4.43
2018-03-01T06:25:51.296Z,4.65
2018-03-01T06:28:20.593Z,6.65
2018-03-01T06:30:49.887Z,5.12
2018-03-01T06:33:19.256Z,6.18
2018-03-01T06:35:48.829Z,6.70
2018-03-01T06:38:18.923Z,4.12
2018-03-01T06:40:48.258Z,5.20
2018-03-01T06:43:17.522Z,4.28
2018-03-01T06:45:46.829Z,6.07
2018-03-01T06:48:16.951Z,5.20
2018-03-01T06:50:47.034Z,5.40
2018-03-01T06:53:16.355Z,7.47
2018-03-01T06:55:45.616Z,4.95
2018-03-01T06:58:14.911Z,5.55
2018-03-01T07:00:45.058Z,5.90
2018-03-01T07:03:15.124Z,4.65
2018-03-01T07:05:44.454Z,4.65
2018-03-01T07:08:13.693Z,4.80
2018-03-01T07:10:43.723Z,6.43
2018-03-01T07:13:13.285Z,3.67
2018-03-01T07:15:42.586Z,2.85
2018-03-01T07:18:11.875Z,5.15
2018-03-01T07:20:41.158Z,7.32
2018-03-01T07:23:10.418Z,5.50
2018-03-01T07:25:39.712Z,5.68
2018-03-01T07:28:08.996Z,6.20
2018-03-01T07:30:40.104Z,4.82
2018-03-01T07:33:10.248Z,5.40
2018-03-01T07:35:41.238Z,4.50
2018-03-01T07:38:10.673Z,5.32
2018-03-01T07:40:46.939Z,4.60
2018-03-01T07:43:17.060Z,3.95
2018-03-01T07:45:46.328Z,3.08
2018-03-01T07:48:15.655Z,4.65
2018-03-01T07:50:44.919Z,6.55
2018-03-01T07:53:14.995Z,4.00
2018-03-01T07:55:44.904Z,6.32
2018-03-01T07:58:15.376Z,6.57
2018-03-01T08:00:44.656Z,4.62
2018-03-01T08:03:13.951Z,5.78
2018-03-01T08:05:43.487Z,5.07
2018-03-01T08:08:12.784Z,5.35
2018-03-01T08:10:42.156Z,4.95
2018-03-01T08:13:11.491Z,6.78
2018-03-01T08:15:40.796Z,5.15
2018-03-01T08:18:10.087Z,4.60
2018-03-01T08:20:44.202Z,4.80
2018-03-01T08:23:15.364Z,6.35
2018-03-01T08:25:45.362Z,5.15
2018-03-01T08:28:14.769Z,6.18
2018-03-01T08:30:45.521Z,5.53
2018-03-01T08:33:14.816Z,4.43
2018-03-01T08:35:44.099Z,6.03
2018-03-01T08:38:13.402Z,5.55
2018-03-01T08:40:44.016Z,4.35
2018-03-01T08:43:13.585Z,4.93
2018-03-01T08:45:42.843Z,5.32
2018-03-01T08:48:12.110Z,5.62
2018-03-01T08:50:42.504Z,6.32
2018-03-01T08:53:11.767Z,5.18
2018-03-01T08:55:44.224Z,4.80
2018-03-01T08:58:14.658Z,6.03
2018-03-01T09:00:44.148Z,4.20
2018-03-01T09:03:13.905Z,4.97
2018-03-01T09:05:46.326Z,4.90
2018-03-01T09:08:15.600Z,3.65
2018-03-01T09:10:44.915Z,5.00
2018-03-01T09:13:14.452Z,6.30
2018-03-01T09:15:43.708Z,6.03
2018-03-01T09:18:13.039Z,4.68
2018-03-01T09:20:42.364Z,6.07
2018-03-01T09:23:11.674Z,5.18
2018-03-01T09:25:40.973Z,7.05
2018-03-01T09:28:10.247Z,4.80
2018-03-01T09:30:39.807Z,4.68
2018-03-01T09:33:09.058Z,5.65
2018-03-01T09:35:39.103Z,5.70
2018-03-01T09:38:08.392Z,3.53
2018-03-01T09:40:37.703Z,5.62
2018-03-01T09:43:07.763Z,6.03
2018-03-01T09:45:37.124Z,5.53
2018-03-01T09:48:06.443Z,7.32
2018-03-01T09:50:35.952Z,5.18
2018-03-01T09:53:05.244Z,6.30
2018-03-01T09:55:34.530Z,7.30
2018-03-01T09:58:05.944Z,6.87
2018-03-01T10:00:35.198Z,7.87
2018-03-01T10:03:04.565Z,6.62
2018-03-01T10:05:33.847Z,6.55
2018-03-01T10:08:03.120Z,6.62
2018-03-01T10:10:32.448Z,5.60
2018-03-01T10:13:02.476Z,6.60
2018-03-01T10:15:31.759Z,5.90
2018-03-01T10:18:01.595Z,6.05
2018-03-01T10:20:31.851Z,5.93
2018-03-01T10:23:01.148Z,5.93
2018-03-01T10:25:30.455Z,5.37
2018-03-01T10:28:00.518Z,5.10
2018-03-01T10:30:29.782Z,7.65
2018-03-01T10:32:59.071Z,6.30
2018-03-01T10:35:28.670Z,6.43
2018-03-01T10:37:57.969Z,6.05
2018-03-01T10:40:27.248Z,6.40
2018-03-01T10:42:57.354Z,6.28
2018-03-01T10:45:26.663Z,6.30
2018-03-01T10:47:55.913Z,6.97
2018-03-01T10:50:25.491Z,6.60
2018-03-01T10:52:54.735Z,5.73
2018-03-01T10:55:24.784Z,7.40
2018-03-01T10:57:54.172Z,6.90
2018-03-01T11:00:29.643Z,6.23
2018-03-01T11:02:58.968Z,5.87
2018-03-01T11:05:28.221Z,7.50
2018-03-01T11:07:57.485Z,6.28
2018-03-01T11:10:26.770Z,6.87
2018-03-01T11:12:56.782Z,5.65
2018-03-01T11:15:26.089Z,5.87
2018-03-01T11:17:56.377Z,7.33
2018-03-01T11:20:26.703Z,6.83
2018-03-01T11:22:56.723Z,6.87
2018-03-01T11:25:27.500Z,7.07
2018-03-01T11:27:58.916Z,6.47
2018-03-01T11:30:28.192Z,6.60
2018-03-01T11:32:57.434Z,6.27
2018-03-01T11:35:26.732Z,6.50
2018-03-01T11:37:55.968Z,6.30
2018-03-01T11:40:25.250Z,6.00
2018-03-01T11:42:54.523Z,8.30
2018-03-01T11:45:23.802Z,6.43
2018-03-01T11:47:53.855Z,6.20
2018-03-01T11:50:23.390Z,7.43
2018-03-01T11:52:52.662Z,6.93
2018-03-01T11:55:21.918Z,7.97
2018-03-01T11:57:51.480Z,6.53
2018-03-01T12:00:20.762Z,6.90
2018-03-01T12:02:50.948Z,6.97
2018-03-01T12:05:20.992Z,7.00
2018-03-01T12:07:50.252Z,7.20
2018-03-01T12:10:19.582Z,5.70
2018-03-01T12:12:48.833Z,6.70
2018-03-01T12:15:18.879Z,6.37
2018-03-01T12:17:48.134Z,7.27
2018-03-01T12:20:17.421Z,6.10
2018-03-01T12:22:46.760Z,7.47
2018-03-01T12:25:17.518Z,7.13
2018-03-01T12:27:47.592Z,6.97
2018-03-01T12:30:16.854Z,6.60
2018-03-01T12:32:46.108Z,7.57
2018-03-01T12:35:15.402Z,7.17
2018-03-01T12:37:44.678Z,6.80
2018-03-01T12:40:13.944Z,5.93
2018-03-01T12:42:43.251Z,7.63
2018-03-01T12:45:12.715Z,6.03
2018-03-01T12:47:42.007Z,7.63
2018-03-01T12:50:11.309Z,6.47
2018-03-01T12:52:40.682Z,7.60
2018-03-01T12:55:09.948Z,6.97
2018-03-01T12:57:39.207Z,6.90
2018-03-01T13:00:08.486Z,6.13
2018-03-01T13:02:37.739Z,7.00
2018-03-01T13:05:08.382Z,6.80
2018-03-01T13:07:38.632Z,6.00
2018-03-01T13:10:07.934Z,6.70
2018-03-01T13:12:37.172Z,7.28
2018-03-01T13:15:06.495Z,7.68
2018-03-01T13:17:36.656Z,7.70
2018-03-01T13:20:06.070Z,6.00
2018-03-01T13:22:35.346Z,6.32
2018-03-01T13:25:04.640Z,6.55
2018-03-01T13:27:33.970Z,6.75
2018-03-01T13:30:03.234Z,5.40
2018-03-01T13:32:34.311Z,5.90
2018-03-01T13:35:03.611Z,7.43
2018-03-01T13:37:32.883Z,6.32
2018-03-01T13:40:02.142Z,7.15
2018-03-01T13:42:32.351Z,6.57
2018-03-01T13:45:02.411Z,5.10
2018-03-01T13:47:33.164Z,6.35
2018-03-01T13:50:02.454Z,5.82
2018-03-01T13:52:31.730Z,6.62
2018-03-01T13:55:00.997Z,7.37
2018-03-01T13:57:30.587Z,6.30
2018-03-01T13:59:59.831Z,5.25
2018-03-01T14:02:29.131Z,6.40
2018-03-01T14:04:58.420Z,6.40
2018-03-01T14:10:32.743Z,4.97
2018-03-01T14:13:05.747Z,6.10
2018-03-01T14:15:49.902Z,6.57
2018-03-01T14:21:34.667Z,6.82
2018-03-01T14:24:04.686Z,5.75
2018-03-01T14:26:36.240Z,5.70
2018-03-01T14:29:06.272Z,6.10
2018-03-01T14:31:36.367Z,6.00
2018-03-01T14:34:05.760Z,6.70
2018-03-01T14:36:34.992Z,6.97
2018-03-01T14:39:04.280Z,4.53
2018-03-01T14:41:33.747Z,7.65
2018-03-01T14:44:03.877Z,5.53
2018-03-01T14:46:33.415Z,5.72
2018-03-01T14:49:03.439Z,5.62
2018-03-01T14:51:32.768Z,6.07
2018-03-01T14:54:02.038Z,6.85
2018-03-01T14:56:31.289Z,5.05
2018-03-01T14:59:00.567Z,6.72
2018-03-01T15:01:30.180Z,6.85
2018-03-01T15:03:59.503Z,6.85
2018-03-01T15:06:28.743Z,5.97
2018-03-01T15:08:58.030Z,6.68
2018-03-01T15:11:28.056Z,5.70
2018-03-01T15:13:57.444Z,6.30
2018-03-01T15:16:26.747Z,7.45
2018-03-01T15:18:56.038Z,6.55
2018-03-01T15:21:25.321Z,7.03
2018-03-01T15:23:55.665Z,5.43
2018-03-01T15:26:25.094Z,5.28
2018-03-01T15:28:54.354Z,5.53
2018-03-01T15:31:23.649Z,4.55
2018-03-01T15:33:53.492Z,7.90
2018-03-01T15:36:22.761Z,6.78
2018-03-01T15:38:52.058Z,5.03
2018-03-01T15:41:21.302Z,6.80
2018-03-01T15:43:50.867Z,6.50
2018-03-01T15:46:20.892Z,6.65
2018-03-01T15:48:50.195Z,7.28
2018-03-01T15:51:19.569Z,6.75
2018-03-01T15:53:48.815Z,6.53
2018-03-01T15:56:18.108Z,7.15
2018-03-01T15:58:47.378Z,6.85
2018-03-01T16:01:16.634Z,7.37
2018-03-01T16:03:45.940Z,6.25
2018-03-01T16:06:15.265Z,5.18
2018-03-01T16:08:44.499Z,6.40
2018-03-01T16:11:13.814Z,7.57
2018-03-01T16:13:43.058Z,5.12
2018-03-01T16:16:12.290Z,6.50
2018-03-01T16:18:41.606Z,6.68
2018-03-01T16:21:10.895Z,7.30
2018-03-01T16:23:40.148Z,6.65
2018-03-01T16:26:09.436Z,6.60
2018-03-01T16:28:38.714Z,6.22
2018-03-01T16:31:07.966Z,7.43
2018-03-01T16:33:37.507Z,7.30
2018-03-01T16:36:06.752Z,5.50
2018-03-01T16:38:36.795Z,8.23
2018-03-01T16:41:06.051Z,7.05
2018-03-01T16:43:35.350Z,7.68
2018-03-01T16:46:04.614Z,7.68
2018-03-01T16:48:34.668Z,5.62
2018-03-01T16:51:03.950Z,6.80
2018-03-01T16:53:33.972Z,5.00
2018-03-01T16:56:04.118Z,7.20
2018-03-01T16:58:33.396Z,7.15
2018-03-01T17:01:02.638Z,5.70
2018-03-01T17:03:31.991Z,4.93
2018-03-01T17:06:01.267Z,7.15
2018-03-01T17:08:30.806Z,7.43
2018-03-01T17:11:00.064Z,6.70
2018-03-01T17:13:33.102Z,8.15
2018-03-01T17:16:02.971Z,6.70
2018-03-01T17:18:32.960Z,7.07
2018-03-01T17:21:02.270Z,7.87
2018-03-01T17:23:31.651Z,7.32
2018-03-01T17:26:00.987Z,5.82
2018-03-01T17:28:30.264Z,6.28
2018-03-01T17:30:59.965Z,8.20
2018-03-01T17:33:29.340Z,4.90
2018-03-01T17:35:58.603Z,6.28
2018-03-01T17:38:28.263Z,6.82
2018-03-01T17:40:58.401Z,6.15
2018-03-01T17:43:27.679Z,6.72
2018-03-01T17:45:57.027Z,7.30
2018-03-01T17:48:26.419Z,7.25
2018-03-01T17:50:56.081Z,6.43
2018-03-01T17:53:25.383Z,6.78
2018-03-01T17:55:54.647Z,8.02
2018-03-01T17:58:23.944Z,7.87
2018-03-01T18:00:53.228Z,6.97
2018-03-01T18:03:22.651Z,7.30
2018-03-01T18:05:51.927Z,7.10
2018-03-01T18:08:21.206Z,6.60
2018-03-01T18:10:50.481Z,6.28
2018-03-01T18:13:19.755Z,8.13
2018-03-01T18:15:49.166Z,8.20
2018-03-01T18:18:18.410Z,7.70
2018-03-01T18:20:47.692Z,7.62
2018-03-01T18:23:18.427Z,7.60
2018-03-01T18:25:51.772Z,6.82
2018-03-01T18:28:21.075Z,7.15
2018-03-01T18:30:50.358Z,8.55
2018-03-01T18:33:19.672Z,7.28
2018-03-01T18:35:49.360Z,8.88
2018-03-01T18:38:18.654Z,9.02
2018-03-01T18:40:48.022Z,7.55
2018-03-01T18:43:17.795Z,9.20
2018-03-01T18:45:47.097Z,8.20
2018-03-01T18:48:16.372Z,8.20
2018-03-01T18:50:45.723Z,9.02
2018-03-01T18:53:14.996Z,9.27
2018-03-01T18:55:44.319Z,8.43
2018-03-01T18:58:14.594Z,7.05
2018-03-01T19:00:44.002Z,7.78
2018-03-01T19:03:13.287Z,7.93
2018-03-01T19:05:43.385Z,6.10
2018-03-01T19:08:12.900Z,7.70
2018-03-01T19:10:42.172Z,9.23
2018-03-01T19:13:11.547Z,7.85
2018-03-01T19:15:41.057Z,9.43
2018-03-01T19:18:10.745Z,7.85
2018-03-01T19:20:40.036Z,7.93
2018-03-01T19:23:11.325Z,8.02
2018-03-01T19:25:40.592Z,7.53
2018-03-01T19:28:09.901Z,9.00
2018-03-01T19:30:39.196Z,8.20
2018-03-01T19:33:11.050Z,9.80
2018-03-01T19:35:40.775Z,9.27
2018-03-01T19:38:10.250Z,7.10
2018-03-01T19:40:43.750Z,9.93
2018-03-01T19:43:13.267Z,7.87
2018-03-01T19:45:42.529Z,6.35
2018-03-01T19:48:11.816Z,9.10
2018-03-01T19:50:44.353Z,8.77
2018-03-01T19:53:20.957Z,9.38
2018-03-01T19:55:50.407Z,9.27
2018-03-01T19:58:19.779Z,9.45
2018-03-01T20:00:49.085Z,8.70
2018-03-01T20:03:18.387Z,9.15
2018-03-01T20:05:48.648Z,8.35
2018-03-01T20:08:17.986Z,9.18
2018-03-01T20:10:47.286Z,9.95
2018-03-01T20:13:16.850Z,11.05
2018-03-01T20:15:46.152Z,9.88
2018-03-01T20:18:16.470Z,9.98
2018-03-01T20:20:45.819Z,9.77
2018-03-01T20:23:15.858Z,8.70
2018-03-01T20:25:45.303Z,9.85
2018-03-01T20:28:14.612Z,10.10
2018-03-01T20:30:44.019Z,9.23
2018-03-01T20:33:15.973Z,12.27
2018-03-01T20:35:46.231Z,10.75
2018-03-01T20:38:15.767Z,10.60
2018-03-01T20:40:45.368Z,9.70
2018-03-01T20:43:14.723Z,11.27
2018-03-01T20:45:46.113Z,7.80
2018-03-01T20:48:15.461Z,9.93
2018-03-01T20:50:44.773Z,12.00
2018-03-01T20:53:14.164Z,11.55
2018-03-01T20:55:44.220Z,9.77
2018-03-01T20:58:13.607Z,9.52
2018-03-01T21:00:43.655Z,10.63
2018-03-01T21:03:13.016Z,9.63
2018-03-01T21:05:42.411Z,12.88
2018-03-01T21:08:11.876Z,12.02
2018-03-01T21:10:41.295Z,11.18
2018-03-01T21:13:10.657Z,10.10
2018-03-01T21:15:43.612Z,11.57
2018-03-01T21:18:13.660Z,12.25
2018-03-01T21:20:42.951Z,9.80
2018-03-01T21:23:12.262Z,10.30
2018-03-01T21:25:41.575Z,11.05
2018-03-01T21:28:11.008Z,11.18
2018-03-01T21:30:40.360Z,10.90
2018-03-01T21:33:10.049Z,9.35
2018-03-01T21:35:39.344Z,7.35
2018-03-01T21:38:09.171Z,10.90
2018-03-01T21:40:38.544Z,11.77
2018-03-01T21:43:08.129Z,11.90
2018-03-01T21:45:38.235Z,9.70
2018-03-01T21:48:07.551Z,12.95
2018-03-01T21:50:38.536Z,11.15
2018-03-01T21:53:07.823Z,11.50
2018-03-01T21:55:37.305Z,14.35
2018-03-01T21:58:07.372Z,8.90
2018-03-01T22:00:36.687Z,10.38
2018-03-01T22:03:05.963Z,12.23
2018-03-01T22:05:35.248Z,12.27
2018-03-01T22:08:05.057Z,13.65
2018-03-01T22:10:34.305Z,9.98
2018-03-01T22:13:03.600Z,13.30
2018-03-01T22:15:32.907Z,11.95
2018-03-01T22:18:02.224Z,10.65
2018-03-01T22:20:31.538Z,12.77
2018-03-01T22:23:00.808Z,10.15
2018-03-01T22:25:32.130Z,11.68
2018-03-01T22:28:01.421Z,10.23
2018-03-01T22:30:30.719Z,10.25
2018-03-01T22:33:14.259Z,11.27
2018-03-01T22:38:34.453Z,12.27
2018-03-01T22:41:04.294Z,11.68
2018-03-01T22:43:33.588Z,12.90
2018-03-01T22:46:02.854Z,12.10
2018-03-01T22:48:32.242Z,13.38
2018-03-01T22:51:01.538Z,11.65
2018-03-01T22:53:31.246Z,11.30
2018-03-01T22:56:00.689Z,12.05
2018-03-01T22:58:29.962Z,12.93
2018-03-01T23:06:33.143Z,12.35
2018-03-01T23:09:05.281Z,12.82
2018-03-01T23:11:34.623Z,13.13
2018-03-01T23:14:05.204Z,9.40
2018-03-01T23:16:34.603Z,13.68
2018-03-01T23:19:03.976Z,12.95
2018-03-01T23:21:33.304Z,11.75
2018-03-01T23:24:02.588Z,12.85
2018-03-01T23:26:31.943Z,13.38
2018-03-01T23:29:01.221Z,11.73
2018-03-01T23:31:30.508Z,13.15
2018-03-01T23:33:59.807Z,11.52
2018-03-01T23:36:29.099Z,9.07
2018-03-01T23:38:58.435Z,13.25
2018-03-01T23:41:32.356Z,12.75
2018-03-01T23:44:01.838Z,12.43
2018-03-01T23:46:31.920Z,11.23
2018-03-01T23:49:03.349Z,10.57
2018-03-01T23:51:33.870Z,12.45
2018-03-01T23:54:06.135Z,12.00
2018-03-01T23:56:35.836Z,13.32
2018-03-01T23:59:05.186Z,9.60
